createdAt,value
2022-11-16T00:00:58.509Z,99.90
2022-11-16T00:03:25.324Z,99.90
2022-11-16T00:06:01.744Z,99.90
2022-11-16T00:08:32.989Z,99.90
2022-11-16T00:11:08.999Z,99.90
2022-11-16T00:13:36.349Z,99.90
2022-11-16T00:16:03.556Z,99.90
2022-11-16T00:18:30.781Z,99.90
2022-11-16T00:20:57.952Z,99.90
2022-11-16T00:23:24.816Z,99.90
2022-11-16T00:25:51.493Z,99.90
2022-11-16T00:28:18.115Z,99.90
2022-11-16T00:30:44.843Z,99.90
2022-11-16T00:33:13.823Z,99.90
2022-11-16T00:35:41.118Z,99.90
2022-11-16T00:38:07.992Z,99.90
2022-11-16T00:40:34.678Z,99.90
2022-11-16T00:43:01.424Z,99.90
2022-11-16T00:45:28.124Z,99.90
2022-11-16T00:48:00.174Z,99.90
2022-11-16T00:50:27.260Z,99.90
2022-11-16T00:52:54.387Z,99.90
2022-11-16T00:55:21.063Z,99.90
2022-11-16T00:57:48.074Z,99.90
2022-11-16T01:00:15.049Z,99.90
2022-11-16T01:02:41.828Z,99.90
2022-11-16T01:05:09.628Z,99.90
2022-11-16T01:07:37.151Z,99.90
2022-11-16T01:10:05.403Z,99.90
2022-11-16T01:12:32.110Z,99.90
2022-11-16T01:14:58.737Z,99.90
2022-11-16T01:17:25.391Z,99.90
2022-11-16T01:19:52.195Z,99.90
2022-11-16T01:22:18.941Z,99.90
2022-11-16T01:24:46.681Z,99.90
2022-11-16T01:27:13.716Z,99.90
2022-11-16T01:29:40.488Z,99.90
2022-11-16T01:32:07.098Z,99.90
2022-11-16T01:34:33.718Z,99.90
2022-11-16T01:37:00.407Z,99.90
2022-11-16T01:39:27.113Z,99.90
2022-11-16T01:41:53.864Z,99.90
2022-11-16T01:44:32.542Z,99.90
2022-11-16T01:47:05.793Z,99.90
2022-11-16T01:49:33.730Z,99.90
2022-11-16T01:52:02.584Z,99.90
2022-11-16T01:54:31.040Z,99.90
2022-11-16T01:57:00.597Z,99.90
2022-11-16T01:59:27.416Z,99.90
2022-11-16T02:01:54.115Z,99.90
2022-11-16T02:04:20.867Z,99.90
2022-11-16T02:06:47.452Z,99.90
2022-11-16T02:09:48.888Z,99.90
2022-11-16T02:12:15.503Z,99.90
2022-11-16T02:15:00.848Z,99.90
2022-11-16T02:17:30.179Z,99.90
2022-11-16T02:20:10.810Z,99.90
2022-11-16T02:22:46.258Z,99.90
2022-11-16T02:25:17.308Z,99.90
2022-11-16T02:27:59.878Z,99.90
2022-11-16T02:30:26.496Z,99.90
2022-11-16T02:32:58.049Z,99.90
2022-11-16T02:35:27.147Z,99.90
2022-11-16T02:37:57.297Z,99.90
2022-11-16T02:40:26.224Z,99.90
2022-11-16T02:42:55.294Z,99.90
2022-11-16T02:45:23.893Z,99.90
2022-11-16T02:47:51.480Z,99.90
2022-11-16T02:50:19.577Z,99.90
2022-11-16T02:52:46.424Z,99.90
2022-11-16T02:55:13.565Z,99.90
2022-11-16T02:57:43.066Z,99.90
2022-11-16T03:00:12.295Z,99.90
2022-11-16T03:02:50.850Z,99.90
2022-11-16T03:05:20.454Z,99.90
2022-11-16T03:07:49.490Z,99.90
2022-11-16T03:10:37.512Z,99.90
2022-11-16T03:13:05.490Z,99.90
2022-11-16T03:15:33.065Z,99.90
2022-11-16T03:18:00.163Z,99.90
2022-11-16T03:20:27.963Z,99.90
2022-11-16T03:22:59.097Z,99.90
2022-11-16T03:25:28.620Z,99.90
2022-11-16T03:27:58.042Z,99.90
2022-11-16T03:30:25.694Z,99.90
2022-11-16T03:32:59.642Z,99.90
2022-11-16T03:35:37.262Z,99.90
2022-11-16T03:38:04.987Z,99.90
2022-11-16T03:40:33.601Z,99.90
2022-11-16T03:43:01.643Z,99.90
2022-11-16T03:45:28.910Z,99.90
2022-11-16T03:47:55.581Z,99.90
2022-11-16T03:50:22.327Z,99.90
2022-11-16T03:52:49.154Z,99.90
2022-11-16T03:55:15.791Z,99.90
2022-11-16T03:57:42.460Z,99.90
2022-11-16T04:00:09.591Z,99.90
2022-11-16T04:02:36.351Z,99.90
2022-11-16T04:05:21.518Z,99.90
2022-11-16T04:08:07.099Z,99.90
2022-11-16T04:10:52.371Z,99.90
2022-11-16T04:13:43.004Z,99.90
2022-11-16T04:16:28.952Z,99.90
2022-11-16T04:19:14.397Z,99.90
2022-11-16T04:22:01.454Z,99.90
2022-11-16T04:24:30.343Z,99.90
2022-11-16T04:27:16.598Z,99.90
2022-11-16T04:29:43.782Z,99.90
2022-11-16T04:32:29.541Z,99.90
2022-11-16T04:35:14.984Z,99.90
2022-11-16T04:37:52.408Z,99.90
2022-11-16T04:40:20.225Z,99.90
2022-11-16T04:42:54.073Z,99.90
2022-11-16T04:45:40.215Z,99.90
2022-11-16T04:48:07.309Z,99.90
2022-11-16T04:50:34.356Z,99.90
2022-11-16T04:53:01.215Z,99.90
2022-11-16T04:55:28.097Z,99.90
2022-11-16T04:57:54.880Z,99.90
2022-11-16T05:00:22.070Z,99.90
2022-11-16T05:02:48.740Z,99.90
2022-11-16T05:05:15.464Z,99.90
2022-11-16T05:07:42.114Z,99.90
2022-11-16T05:10:09.038Z,99.90
2022-11-16T05:12:35.769Z,99.90
2022-11-16T05:15:02.625Z,99.90
2022-11-16T05:17:29.437Z,99.90
2022-11-16T05:20:14.462Z,99.90
2022-11-16T05:22:41.411Z,99.90
2022-11-16T05:25:08.794Z,99.90
2022-11-16T05:27:35.780Z,99.90
2022-11-16T05:30:02.473Z,99.90
2022-11-16T05:32:29.112Z,99.90
2022-11-16T05:34:55.741Z,99.90
2022-11-16T05:37:26.223Z,99.90
2022-11-16T05:39:53.515Z,99.90
2022-11-16T05:42:20.216Z,99.90
2022-11-16T05:44:46.849Z,99.90
2022-11-16T05:47:13.533Z,99.90
2022-11-16T05:49:40.256Z,99.90
2022-11-16T05:52:06.915Z,99.90
2022-11-16T05:54:33.890Z,99.90
2022-11-16T05:57:00.576Z,99.90
2022-11-16T05:59:27.777Z,99.90
2022-11-16T06:01:57.917Z,99.90
2022-11-16T06:04:25.064Z,99.90
2022-11-16T06:06:51.938Z,99.90
2022-11-16T06:09:18.635Z,99.90
2022-11-16T06:11:45.332Z,99.90
2022-11-16T06:14:12.091Z,99.90
2022-11-16T06:16:38.864Z,99.90
2022-11-16T06:19:08.045Z,99.90
2022-11-16T06:21:34.802Z,99.90
2022-11-16T06:24:02.701Z,99.90
2022-11-16T06:26:29.513Z,99.90
2022-11-16T06:28:56.198Z,99.90
2022-11-16T06:31:22.801Z,99.90
2022-11-16T06:33:49.471Z,99.90
2022-11-16T06:36:16.081Z,99.90
2022-11-16T06:38:42.737Z,99.90
2022-11-16T06:41:09.389Z,99.90
2022-11-16T06:43:36.094Z,99.90
2022-11-16T06:46:02.805Z,99.90
2022-11-16T06:48:30.507Z,99.90
2022-11-16T06:50:57.163Z,99.90
2022-11-16T06:53:29.019Z,99.90
2022-11-16T06:56:00.431Z,99.90
2022-11-16T06:58:28.512Z,99.90
2022-11-16T07:00:55.158Z,99.90
2022-11-16T07:03:21.788Z,99.90
2022-11-16T07:05:48.385Z,99.90
2022-11-16T07:08:15.012Z,99.90
2022-11-16T07:10:41.771Z,99.90
2022-11-16T07:13:08.445Z,99.90
2022-11-16T07:15:35.154Z,99.90
2022-11-16T07:18:05.631Z,99.90
2022-11-16T07:20:32.865Z,99.90
2022-11-16T07:23:00.201Z,99.90
2022-11-16T07:25:26.993Z,99.90
2022-11-16T07:27:53.600Z,99.90
2022-11-16T07:30:20.227Z,99.90
2022-11-16T07:32:47.060Z,99.90
2022-11-16T07:35:13.825Z,99.90
2022-11-16T07:37:40.429Z,99.90
2022-11-16T07:40:07.479Z,99.90
2022-11-16T07:42:34.206Z,99.90
2022-11-16T07:45:00.929Z,99.90
2022-11-16T07:47:27.632Z,99.90
2022-11-16T07:49:54.330Z,99.90
2022-11-16T07:52:20.975Z,99.90
2022-11-16T07:54:47.609Z,99.90
2022-11-16T07:57:14.299Z,99.90
2022-11-16T07:59:40.963Z,99.90
2022-11-16T08:02:09.145Z,99.90
2022-11-16T08:04:35.894Z,99.90
2022-11-16T08:07:02.580Z,99.90
2022-11-16T08:09:29.240Z,99.90
2022-11-16T08:11:55.847Z,99.90
2022-11-16T08:14:22.625Z,99.90
2022-11-16T08:16:49.502Z,99.90
2022-11-16T08:19:16.124Z,99.90
2022-11-16T08:21:42.766Z,99.90
2022-11-16T08:24:09.507Z,99.90
2022-11-16T08:26:36.169Z,99.90
2022-11-16T08:29:02.945Z,99.90
2022-11-16T08:31:29.684Z,99.90
2022-11-16T08:33:56.810Z,99.90
2022-11-16T08:36:23.691Z,99.90
2022-11-16T08:38:51.171Z,99.90
2022-11-16T08:41:18.672Z,99.90
2022-11-16T08:43:47.202Z,99.90
2022-11-16T08:46:14.446Z,99.90
2022-11-16T08:48:41.206Z,99.90
2022-11-16T08:51:17.880Z,99.90
2022-11-16T08:53:48.075Z,99.90
2022-11-16T08:56:15.903Z,99.90
2022-11-16T08:58:43.742Z,99.90
2022-11-16T09:01:11.524Z,99.90
2022-11-16T09:03:38.881Z,99.90
2022-11-16T09:06:06.228Z,99.90
2022-11-16T09:08:33.690Z,99.90
2022-11-16T09:11:03.453Z,99.90
2022-11-16T09:13:30.149Z,99.90
2022-11-16T09:15:57.431Z,99.90
2022-11-16T09:18:24.610Z,99.90
2022-11-16T09:20:51.411Z,99.90
2022-11-16T09:23:23.757Z,99.90
2022-11-16T09:25:52.027Z,99.90
2022-11-16T09:28:18.986Z,99.90
2022-11-16T09:30:46.285Z,99.90
2022-11-16T09:33:13.382Z,99.90
2022-11-16T09:35:40.409Z,99.90
2022-11-16T09:38:09.838Z,99.90
2022-11-16T09:40:37.965Z,99.90
2022-11-16T09:43:16.527Z,99.90
2022-11-16T09:45:49.344Z,99.90
2022-11-16T09:48:17.061Z,99.90
2022-11-16T09:51:01.863Z,99.90
2022-11-16T09:53:44.449Z,99.90
2022-11-16T09:56:19.144Z,99.90
2022-11-16T09:59:02.703Z,99.90
2022-11-16T10:01:41.383Z,99.90
2022-11-16T10:04:36.439Z,99.90
2022-11-16T10:07:08.818Z,99.90
2022-11-16T10:09:36.060Z,99.90
2022-11-16T10:12:06.592Z,99.90
2022-11-16T10:14:45.338Z,99.90
2022-11-16T10:17:14.804Z,99.90
2022-11-16T10:19:49.326Z,99.90
2022-11-16T10:22:27.428Z,99.90
2022-11-16T10:24:58.030Z,99.90
2022-11-16T10:27:44.475Z,99.90
2022-11-16T10:30:16.121Z,99.90
2022-11-16T10:32:55.026Z,99.90
2022-11-16T10:35:33.855Z,99.90
2022-11-16T10:38:02.678Z,99.90
2022-11-16T10:40:30.400Z,99.50
2022-11-16T10:43:13.139Z,97.90
2022-11-16T10:45:50.192Z,96.40
2022-11-16T10:48:22.761Z,95.50
2022-11-16T10:50:50.529Z,97.20
2022-11-16T10:53:28.275Z,99.30
2022-11-16T10:56:09.612Z,99.90
2022-11-16T10:59:15.080Z,99.90
2022-11-16T11:01:54.774Z,99.90
2022-11-16T11:04:28.437Z,99.90
2022-11-16T11:06:56.254Z,99.90
2022-11-16T11:09:22.895Z,99.90
2022-11-16T11:12:17.268Z,99.90
2022-11-16T11:15:04.208Z,99.90
2022-11-16T11:17:32.051Z,99.90
2022-11-16T11:20:19.796Z,99.90
2022-11-16T11:22:54.413Z,99.90
2022-11-16T11:25:32.481Z,99.90
2022-11-16T11:28:06.516Z,99.90
2022-11-16T11:30:33.960Z,99.90
2022-11-16T11:33:00.888Z,99.90
2022-11-16T11:35:31.882Z,99.90
2022-11-16T11:38:07.240Z,99.90
2022-11-16T11:40:34.598Z,99.20
2022-11-16T11:43:02.495Z,99.50
2022-11-16T11:45:32.339Z,99.90
2022-11-16T11:48:03.146Z,99.90
2022-11-16T11:50:38.965Z,99.90
2022-11-16T11:53:08.129Z,99.90
2022-11-16T11:55:35.063Z,99.90
2022-11-16T11:58:02.738Z,99.90
2022-11-16T12:00:36.506Z,99.90
2022-11-16T12:03:32.503Z,99.90
2022-11-16T12:05:59.401Z,99.90
2022-11-16T12:08:25.982Z,99.90
2022-11-16T12:10:58.680Z,99.90
2022-11-16T12:13:25.322Z,99.90
2022-11-16T12:16:02.039Z,99.90
2022-11-16T12:18:37.441Z,99.90
2022-11-16T12:21:13.421Z,99.90
2022-11-16T12:23:58.639Z,99.90
2022-11-16T12:26:32.939Z,99.90
2022-11-16T12:29:19.204Z,99.90
2022-11-16T12:31:58.278Z,99.90
2022-11-16T12:34:28.196Z,99.90
2022-11-16T12:37:03.470Z,99.90
2022-11-16T12:39:44.346Z,99.90
2022-11-16T12:42:11.282Z,99.90
2022-11-16T12:44:56.381Z,99.90
2022-11-16T12:47:26.353Z,99.90
2022-11-16T12:49:59.164Z,99.90
2022-11-16T12:52:41.178Z,99.90
2022-11-16T12:55:25.973Z,99.90
2022-11-16T12:57:59.299Z,99.90
2022-11-16T13:00:26.513Z,99.90
2022-11-16T13:03:05.452Z,99.90
2022-11-16T13:05:50.614Z,99.90
2022-11-16T13:08:23.190Z,99.90
2022-11-16T13:10:52.593Z,99.90
2022-11-16T13:13:35.943Z,99.90
2022-11-16T13:16:05.247Z,99.90
2022-11-16T13:18:33.022Z,99.90
2022-11-16T13:21:02.494Z,99.90
2022-11-16T13:23:32.374Z,99.90
2022-11-16T13:26:31.767Z,99.90
2022-11-16T13:29:01.788Z,99.90
2022-11-16T13:31:35.470Z,99.90
2022-11-16T13:34:05.513Z,99.90
2022-11-16T13:36:32.105Z,99.90
2022-11-16T13:38:58.989Z,99.90
2022-11-16T13:41:29.258Z,99.90
2022-11-16T13:43:56.094Z,99.90
2022-11-16T13:46:54.111Z,99.90
2022-11-16T13:49:28.548Z,99.90
2022-11-16T13:51:56.494Z,99.90
2022-11-16T13:54:50.015Z,99.90
2022-11-16T13:57:27.252Z,99.90
2022-11-16T13:59:57.101Z,99.90
2022-11-16T14:02:33.565Z,99.90
2022-11-16T14:05:01.414Z,99.90
2022-11-16T14:07:33.940Z,99.90
2022-11-16T14:10:01.252Z,99.90
2022-11-16T14:12:46.582Z,99.90
2022-11-16T14:15:17.737Z,99.90
2022-11-16T14:17:50.269Z,99.90
2022-11-16T14:20:25.875Z,99.90
2022-11-16T14:23:09.133Z,99.90
2022-11-16T14:25:41.371Z,99.90
2022-11-16T14:28:14.126Z,99.90
2022-11-16T14:30:49.796Z,99.90
2022-11-16T14:33:25.737Z,99.90
2022-11-16T14:35:53.336Z,99.90
2022-11-16T14:38:31.761Z,99.90
2022-11-16T14:40:59.914Z,99.90
2022-11-16T14:43:30.156Z,99.90
2022-11-16T14:45:59.018Z,99.90
2022-11-16T14:48:26.238Z,99.90
2022-11-16T14:51:02.311Z,99.90
2022-11-16T14:53:29.396Z,99.90
2022-11-16T14:56:09.618Z,99.90
2022-11-16T14:58:36.482Z,99.90
2022-11-16T15:01:05.058Z,99.90
2022-11-16T15:03:34.403Z,99.90
2022-11-16T15:06:02.449Z,99.90
2022-11-16T15:08:33.021Z,99.90
2022-11-16T15:10:59.854Z,99.90
2022-11-16T15:13:26.647Z,99.90
2022-11-16T15:16:09.919Z,99.90
2022-11-16T15:18:36.691Z,99.90
2022-11-16T15:21:03.378Z,99.90
2022-11-16T15:23:30.915Z,99.90
2022-11-16T15:26:00.277Z,99.90
2022-11-16T15:28:28.687Z,99.90
2022-11-16T15:30:55.526Z,99.90
2022-11-16T15:33:27.019Z,99.90
2022-11-16T15:35:55.655Z,99.90
2022-11-16T15:38:22.322Z,99.90
2022-11-16T15:40:54.890Z,99.90
2022-11-16T15:43:23.319Z,99.90
2022-11-16T15:45:50.145Z,99.90
2022-11-16T15:48:20.889Z,99.90
2022-11-16T15:51:07.460Z,99.90
2022-11-16T15:53:34.367Z,99.90
2022-11-16T15:56:01.570Z,99.90
2022-11-16T15:58:29.103Z,99.90
2022-11-16T16:00:56.080Z,99.90
2022-11-16T16:03:24.438Z,99.90
2022-11-16T16:05:51.431Z,99.90
2022-11-16T16:08:33.188Z,99.90
2022-11-16T16:11:02.683Z,99.90
2022-11-16T16:13:33.396Z,99.90
2022-11-16T16:16:19.242Z,99.90
2022-11-16T16:18:46.132Z,99.90
2022-11-16T16:21:13.954Z,99.90
2022-11-16T16:23:44.537Z,99.90
2022-11-16T16:26:11.180Z,99.90
2022-11-16T16:28:38.466Z,99.90
2022-11-16T16:31:05.466Z,99.90
2022-11-16T16:33:32.445Z,99.90
2022-11-16T16:35:59.363Z,99.90
2022-11-16T16:38:26.075Z,99.90
2022-11-16T16:40:52.800Z,99.90
2022-11-16T16:43:19.524Z,99.90
2022-11-16T16:45:46.266Z,99.90
2022-11-16T16:48:12.976Z,99.90
2022-11-16T16:50:40.007Z,99.90
2022-11-16T16:53:06.704Z,99.90
2022-11-16T16:55:37.560Z,99.90
2022-11-16T16:58:05.114Z,99.90
2022-11-16T17:00:31.878Z,99.90
2022-11-16T17:02:58.574Z,99.90
2022-11-16T17:05:26.368Z,99.90
2022-11-16T17:07:56.220Z,99.90
2022-11-16T17:10:22.990Z,99.90
2022-11-16T17:12:53.147Z,99.90
2022-11-16T17:15:19.792Z,99.90
2022-11-16T17:17:46.519Z,99.90
2022-11-16T17:20:13.406Z,99.90
2022-11-16T17:22:41.876Z,99.90
2022-11-16T17:25:09.154Z,99.90
2022-11-16T17:27:35.970Z,99.90
2022-11-16T17:30:02.845Z,99.90
2022-11-16T17:32:29.835Z,99.90
2022-11-16T17:34:57.133Z,99.90
2022-11-16T17:37:23.742Z,99.90
2022-11-16T17:39:50.356Z,99.90
2022-11-16T17:42:17.168Z,99.90
2022-11-16T17:44:45.656Z,99.90
2022-11-16T17:47:12.383Z,99.90
2022-11-16T17:49:39.288Z,99.90
2022-11-16T17:52:06.485Z,99.90
2022-11-16T17:54:33.130Z,99.90
2022-11-16T17:56:59.736Z,99.90
2022-11-16T17:59:29.469Z,99.90
2022-11-16T18:01:58.182Z,99.90
2022-11-16T18:04:25.212Z,99.90
2022-11-16T18:06:51.961Z,99.90
2022-11-16T18:09:18.934Z,99.90
2022-11-16T18:11:45.801Z,99.90
2022-11-16T18:14:12.588Z,99.90
2022-11-16T18:16:42.353Z,99.90
2022-11-16T18:19:11.926Z,99.90
2022-11-16T18:21:39.747Z,99.90
2022-11-16T18:24:07.739Z,99.90
2022-11-16T18:26:34.448Z,99.90
2022-11-16T18:29:01.215Z,99.90
2022-11-16T18:31:29.742Z,99.90
2022-11-16T18:33:56.556Z,99.90
2022-11-16T18:36:23.260Z,99.90
2022-11-16T18:38:50.076Z,99.90
2022-11-16T18:41:19.698Z,99.90
2022-11-16T18:43:55.538Z,99.90
2022-11-16T18:46:23.943Z,99.90
2022-11-16T18:48:50.697Z,99.90
2022-11-16T18:51:17.874Z,99.90
2022-11-16T18:53:44.510Z,99.90
2022-11-16T18:56:14.254Z,99.90
2022-11-16T18:58:51.012Z,99.90
2022-11-16T19:01:19.846Z,99.90
2022-11-16T19:03:47.033Z,99.90
2022-11-16T19:06:17.151Z,99.90
2022-11-16T19:08:44.166Z,99.90
2022-11-16T19:11:12.100Z,99.90
2022-11-16T19:13:39.891Z,99.90
2022-11-16T19:16:06.916Z,99.90
2022-11-16T19:18:33.576Z,99.90
2022-11-16T19:21:04.321Z,99.90
2022-11-16T19:23:34.659Z,99.90
2022-11-16T19:26:02.416Z,99.90
2022-11-16T19:28:29.214Z,99.90
2022-11-16T19:30:55.834Z,99.90
2022-11-16T19:33:22.528Z,99.90
2022-11-16T19:35:49.187Z,99.90
2022-11-16T19:38:15.849Z,99.90
2022-11-16T19:40:42.512Z,99.90
2022-11-16T19:43:09.176Z,99.90
2022-11-16T19:45:35.839Z,99.90
2022-11-16T19:48:02.485Z,99.90
2022-11-16T19:50:29.221Z,99.90
2022-11-16T19:52:56.179Z,99.90
2022-11-16T19:55:22.835Z,99.90
2022-11-16T19:57:49.568Z,99.90
2022-11-16T20:00:16.593Z,99.90
2022-11-16T20:02:43.247Z,99.90
2022-11-16T20:05:10.015Z,99.90
2022-11-16T20:07:38.873Z,99.90
2022-11-16T20:10:06.651Z,99.90
2022-11-16T20:12:33.271Z,99.90
2022-11-16T20:15:01.408Z,99.90
2022-11-16T20:17:28.081Z,99.90
2022-11-16T20:19:54.724Z,99.90
2022-11-16T20:22:21.383Z,99.90
2022-11-16T20:24:48.144Z,99.90
2022-11-16T20:27:14.827Z,99.90
2022-11-16T20:29:41.899Z,99.90
2022-11-16T20:32:11.924Z,99.90
2022-11-16T20:34:39.137Z,99.90
2022-11-16T20:37:06.726Z,99.90
2022-11-16T20:39:33.403Z,99.90
2022-11-16T20:42:00.083Z,99.90
2022-11-16T20:44:30.988Z,99.90
2022-11-16T20:46:57.761Z,99.90
2022-11-16T20:49:27.830Z,99.90
2022-11-16T20:51:57.563Z,99.90
2022-11-16T20:54:24.437Z,99.90
2022-11-16T20:56:51.447Z,99.90
2022-11-16T20:59:21.642Z,99.90
2022-11-16T21:01:55.584Z,99.90
2022-11-16T21:04:22.334Z,99.90
2022-11-16T21:06:49.122Z,99.90
2022-11-16T21:09:22.024Z,99.90
2022-11-16T21:12:07.807Z,99.90
2022-11-16T21:14:34.535Z,99.90
2022-11-16T21:17:01.216Z,99.90
2022-11-16T21:19:27.900Z,99.90
2022-11-16T21:21:54.546Z,99.90
2022-11-16T21:24:24.691Z,99.90
2022-11-16T21:26:52.223Z,99.90
2022-11-16T21:29:22.253Z,99.90
2022-11-16T21:31:49.014Z,99.90
2022-11-16T21:34:15.701Z,99.90
2022-11-16T21:36:42.335Z,99.90
2022-11-16T21:39:08.971Z,99.90
2022-11-16T21:41:35.812Z,99.90
2022-11-16T21:44:02.775Z,99.90
2022-11-16T21:46:29.729Z,99.90
2022-11-16T21:48:56.893Z,99.90
2022-11-16T21:51:25.240Z,99.90
2022-11-16T21:53:52.015Z,99.90
2022-11-16T21:56:20.047Z,99.90
2022-11-16T21:58:46.754Z,99.90
2022-11-16T22:01:15.668Z,99.90
2022-11-16T22:03:42.489Z,99.90
2022-11-16T22:06:31.135Z,99.90
2022-11-16T22:08:58.199Z,99.90
2022-11-16T22:11:24.967Z,99.90
2022-11-16T22:13:51.774Z,99.90
2022-11-16T22:16:19.297Z,99.90
2022-11-16T22:18:46.039Z,99.90
2022-11-16T22:21:15.338Z,99.90
2022-11-16T22:23:42.487Z,99.90
2022-11-16T22:26:11.891Z,99.90
2022-11-16T22:28:41.372Z,99.90
2022-11-16T22:31:16.893Z,99.90
2022-11-16T22:33:43.573Z,99.90
2022-11-16T22:36:11.975Z,99.90
2022-11-16T22:38:38.703Z,99.90
2022-11-16T22:41:05.423Z,99.90
2022-11-16T22:43:32.810Z,99.90
2022-11-16T22:46:01.264Z,99.90
2022-11-16T22:48:31.765Z,99.90
2022-11-16T22:51:21.377Z,99.90
2022-11-16T22:53:51.895Z,99.90
2022-11-16T22:56:18.537Z,99.90
2022-11-16T22:58:45.297Z,99.90
2022-11-16T23:01:11.911Z,99.90
2022-11-16T23:03:39.032Z,99.90
2022-11-16T23:06:06.434Z,99.90
2022-11-16T23:08:34.181Z,99.90
2022-11-16T23:11:22.451Z,99.90
2022-11-16T23:14:07.972Z,99.90
2022-11-16T23:16:34.963Z,99.90
2022-11-16T23:19:01.572Z,99.90
2022-11-16T23:21:47.147Z,99.90
2022-11-16T23:24:33.262Z,99.90
2022-11-16T23:27:20.206Z,99.90
2022-11-16T23:29:46.976Z,99.90
2022-11-16T23:32:13.654Z,99.90
2022-11-16T23:34:40.304Z,99.90
2022-11-16T23:37:07.655Z,99.90
2022-11-16T23:39:34.293Z,99.90
2022-11-16T23:42:19.474Z,99.90
2022-11-16T23:44:46.314Z,99.90
2022-11-16T23:47:12.920Z,99.90
2022-11-16T23:49:39.505Z,99.90
2022-11-16T23:52:06.199Z,99.90
2022-11-16T23:54:32.967Z,99.90
2022-11-16T23:56:59.630Z,99.90
2022-11-16T23:59:26.302Z,99.90
